sensor_id;sensor_type;location;lat;lon;timestamp;pressure;altitude;pressure_sealevel;temperature;humidity
21640;BME280;10981;45.462;10.974;2024-03-23T00:54:36;100541.53;;;8.71;100.00
21640;BME280;10981;45.462;10.974;2024-03-23T00:57:03;100532.41;;;8.65;100.00
21640;BME280;10981;45.462;10.974;2024-03-23T00:59:30;100531.56;;;8.65;100.00
21640;BME280;10981;45.462;10.974;2024-03-23T01:01:58;100524.59;;;8.65;100.00
21640;BME280;10981;45.462;10.974;2024-03-23T01:04:25;100526.00;;;8.70;100.00
21640;BME280;10981;45.462;10.974;2024-03-23T01:06:52;100517.00;;;8.74;100.00
21640;BME280;10981;45.462;10.974;2024-03-23T01:09:22;100517.81;;;8.74;100.00
21640;BME280;10981;45.462;10.974;2024-03-23T01:11:49;100510.13;;;8.73;100.00
21640;BME280;10981;45.462;10.974;2024-03-23T01:14:17;100511.66;;;8.75;100.00
21640;BME280;10981;45.462;10.974;2024-03-23T01:16:44;100505.63;;;8.75;100.00
21640;BME280;10981;45.462;10.974;2024-03-23T01:19:11;100507.50;;;8.73;100.00
21640;BME280;10981;45.462;10.974;2024-03-23T01:21:38;100505.97;;;8.81;100.00
21640;BME280;10981;45.462;10.974;2024-03-23T01:24:05;100504.69;;;8.87;100.00
21640;BME280;10981;45.462;10.974;2024-03-23T01:26:33;100509.19;;;8.85;100.00
21640;BME280;10981;45.462;10.974;2024-03-23T01:29:00;100512.97;;;8.70;100.00
21640;BME280;10981;45.462;10.974;2024-03-23T01:31:28;100506.41;;;8.53;100.00
21640;BME280;10981;45.462;10.974;2024-03-23T01:33:55;100506.63;;;8.49;100.00
21640;BME280;10981;45.462;10.974;2024-03-23T01:36:22;100503.09;;;8.50;100.00
21640;BME280;10981;45.462;10.974;2024-03-23T01:38:50;100503.91;;;8.51;100.00
21640;BME280;10981;45.462;10.974;2024-03-23T01:41:17;100499.41;;;8.53;100.00
21640;BME280;10981;45.462;10.974;2024-03-23T01:43:44;100500.03;;;8.57;100.00
21640;BME280;10981;45.462;10.974;2024-03-23T01:46:12;100496.34;;;8.59;100.00
21640;BME280;10981;45.462;10.974;2024-03-23T01:48:39;100498.72;;;8.62;100.00
21640;BME280;10981;45.462;10.974;2024-03-23T01:51:07;100495.38;;;8.60;100.00
21640;BME280;10981;45.462;10.974;2024-03-23T01:53:34;100496.31;;;8.48;100.00
21640;BME280;10981;45.462;10.974;2024-03-23T01:56:02;100486.72;;;8.48;100.00
21640;BME280;10981;45.462;10.974;2024-03-23T01:58:30;100488.38;;;8.49;100.00
21640;BME280;10981;45.462;10.974;2024-03-23T02:00:58;100485.31;;;8.56;100.00
21640;BME280;10981;45.462;10.974;2024-03-23T02:03:26;100480.22;;;8.54;100.00
21640;BME280;10981;45.462;10.974;2024-03-23T02:05:54;100472.41;;;8.54;100.00
21640;BME280;10981;45.462;10.974;2024-03-23T02:08:23;100468.72;;;8.57;100.00
21640;BME280;10981;45.462;10.974;2024-03-23T02:10:51;100470.97;;;8.61;100.00
21640;BME280;10981;45.462;10.974;2024-03-23T02:13:19;100477.72;;;8.64;100.00
21640;BME280;10981;45.462;10.974;2024-03-23T02:15:46;100475.34;;;8.49;100.00
21640;BME280;10981;45.462;10.974;2024-03-23T02:18:13;100476.72;;;8.42;100.00
21640;BME280;10981;45.462;10.974;2024-03-23T02:20:41;100467.91;;;8.32;100.00
21640;BME280;10981;45.462;10.974;2024-03-23T02:23:17;100460.19;;;8.19;100.00
21640;BME280;10981;45.462;10.974;2024-03-23T02:25:45;100457.41;;;8.09;100.00
21640;BME280;10981;45.462;10.974;2024-03-23T02:28:12;100460.44;;;8.16;100.00
21640;BME280;10981;45.462;10.974;2024-03-23T02:30:40;100458.63;;;8.16;100.00
21640;BME280;10981;45.462;10.974;2024-03-23T02:33:07;100450.38;;;8.23;100.00
21640;BME280;10981;45.462;10.974;2024-03-23T02:35:34;100454.66;;;8.24;100.00
21640;BME280;10981;45.462;10.974;2024-03-23T02:38:01;100450.69;;;8.18;100.00
21640;BME280;10981;45.462;10.974;2024-03-23T02:40:29;100446.66;;;8.14;100.00
21640;BME280;10981;45.462;10.974;2024-03-23T02:42:56;100446.78;;;8.12;100.00
21640;BME280;10981;45.462;10.974;2024-03-23T02:45:23;100444.88;;;8.14;100.00
21640;BME280;10981;45.462;10.974;2024-03-23T02:47:51;100440.63;;;8.13;100.00
21640;BME280;10981;45.462;10.974;2024-03-23T02:50:22;100440.97;;;8.09;100.00
21640;BME280;10981;45.462;10.974;2024-03-23T02:52:49;100443.53;;;7.97;100.00
21640;BME280;10981;45.462;10.974;2024-03-23T02:55:16;100447.19;;;7.95;100.00
21640;BME280;10981;45.462;10.974;2024-03-23T02:57:44;100431.06;;;7.90;100.00
21640;BME280;10981;45.462;10.974;2024-03-23T03:00:11;100440.44;;;7.92;100.00
21640;BME280;10981;45.462;10.974;2024-03-23T03:02:39;100426.19;;;7.85;100.00
21640;BME280;10981;45.462;10.974;2024-03-23T03:05:07;100433.44;;;7.93;100.00
21640;BME280;10981;45.462;10.974;2024-03-23T03:07:35;100444.81;;;7.92;100.00
21640;BME280;10981;45.462;10.974;2024-03-23T03:10:05;100434.63;;;7.89;100.00
21640;BME280;10981;45.462;10.974;2024-03-23T03:12:33;100439.50;;;7.93;100.00
21640;BME280;10981;45.462;10.974;2024-03-23T03:15:00;100438.19;;;7.99;100.00
21640;BME280;10981;45.462;10.974;2024-03-23T03:17:27;100429.59;;;8.10;100.00
21640;BME280;10981;45.462;10.974;2024-03-23T03:19:55;100431.03;;;8.14;100.00
21640;BME280;10981;45.462;10.974;2024-03-23T03:22:23;100421.78;;;8.10;100.00
21640;BME280;10981;45.462;10.974;2024-03-23T03:24:50;100421.31;;;8.05;100.00
21640;BME280;10981;45.462;10.974;2024-03-23T03:27:18;100427.09;;;7.97;100.00
21640;BME280;10981;45.462;10.974;2024-03-23T03:29:45;100415.22;;;7.93;100.00
21640;BME280;10981;45.462;10.974;2024-03-23T03:32:12;100412.72;;;7.91;100.00
21640;BME280;10981;45.462;10.974;2024-03-23T03:34:39;100410.47;;;7.87;100.00
21640;BME280;10981;45.462;10.974;2024-03-23T03:37:07;100403.72;;;7.84;100.00
21640;BME280;10981;45.462;10.974;2024-03-23T03:39:34;100405.59;;;7.82;100.00
21640;BME280;10981;45.462;10.974;2024-03-23T03:42:01;100401.44;;;7.79;100.00
21640;BME280;10981;45.462;10.974;2024-03-23T03:44:33;100403.72;;;7.84;100.00
21640;BME280;10981;45.462;10.974;2024-03-23T03:47:00;100393.19;;;7.85;100.00
21640;BME280;10981;45.462;10.974;2024-03-23T03:49:28;100395.28;;;7.80;100.00
21640;BME280;10981;45.462;10.974;2024-03-23T03:51:55;100391.03;;;7.79;100.00
21640;BME280;10981;45.462;10.974;2024-03-23T03:54:22;100379.06;;;7.77;100.00
21640;BME280;10981;45.462;10.974;2024-03-23T03:56:50;100384.97;;;7.79;100.00
21640;BME280;10981;45.462;10.974;2024-03-23T03:59:18;100380.16;;;7.85;100.00
21640;BME280;10981;45.462;10.974;2024-03-23T04:01:45;100377.69;;;7.84;100.00
21640;BME280;10981;45.462;10.974;2024-03-23T04:04:12;100374.78;;;7.76;100.00
21640;BME280;10981;45.462;10.974;2024-03-23T04:06:40;100369.91;;;7.71;100.00
21640;BME280;10981;45.462;10.974;2024-03-23T04:09:08;100362.34;;;7.68;100.00
21640;BME280;10981;45.462;10.974;2024-03-23T04:11:35;100361.28;;;7.71;100.00
21640;BME280;10981;45.462;10.974;2024-03-23T04:14:02;100351.16;;;7.55;100.00
21640;BME280;10981;45.462;10.974;2024-03-23T04:16:33;100370.16;;;7.68;100.00
21640;BME280;10981;45.462;10.974;2024-03-23T04:19:02;100361.53;;;7.67;100.00
21640;BME280;10981;45.462;10.974;2024-03-23T04:21:29;100362.56;;;7.65;100.00
21640;BME280;10981;45.462;10.974;2024-03-23T04:23:56;100362.66;;;7.63;100.00
21640;BME280;10981;45.462;10.974;2024-03-23T04:26:23;100361.97;;;7.61;100.00
21640;BME280;10981;45.462;10.974;2024-03-23T04:28:51;100358.31;;;7.64;100.00
21640;BME280;10981;45.462;10.974;2024-03-23T04:31:18;100357.25;;;7.66;100.00
21640;BME280;10981;45.462;10.974;2024-03-23T04:33:46;100357.69;;;7.60;100.00
21640;BME280;10981;45.462;10.974;2024-03-23T04:36:13;100358.75;;;7.58;100.00
21640;BME280;10981;45.462;10.974;2024-03-23T04:38:40;100351.38;;;7.51;100.00
21640;BME280;10981;45.462;10.974;2024-03-23T04:41:08;100350.53;;;7.40;100.00
21640;BME280;10981;45.462;10.974;2024-03-23T04:43:35;100350.03;;;7.34;100.00
21640;BME280;10981;45.462;10.974;2024-03-23T04:46:03;100346.69;;;7.32;100.00
21640;BME280;10981;45.462;10.974;2024-03-23T04:48:31;100349.06;;;7.35;100.00
21640;BME280;10981;45.462;10.974;2024-03-23T04:50:58;100359.19;;;7.51;100.00
21640;BME280;10981;45.462;10.974;2024-03-23T04:53:25;100353.75;;;7.55;100.00
21640;BME280;10981;45.462;10.974;2024-03-23T04:55:56;100351.34;;;7.40;100.00
21640;BME280;10981;45.462;10.974;2024-03-23T04:58:23;100343.72;;;7.26;100.00
21640;BME280;10981;45.462;10.974;2024-03-23T05:00:57;100339.06;;;7.18;100.00
21640;BME280;10981;45.462;10.974;2024-03-23T05:03:25;100337.59;;;7.14;100.00
21640;BME280;10981;45.462;10.974;2024-03-23T05:05:52;100334.72;;;7.30;100.00
21640;BME280;10981;45.462;10.974;2024-03-23T05:08:20;100339.13;;;7.41;100.00
21640;BME280;10981;45.462;10.974;2024-03-23T05:10:47;100334.53;;;7.44;100.00
21640;BME280;10981;45.462;10.974;2024-03-23T05:13:14;100332.69;;;7.46;100.00
21640;BME280;10981;45.462;10.974;2024-03-23T05:15:41;100335.28;;;7.46;100.00
21640;BME280;10981;45.462;10.974;2024-03-23T05:18:08;100329.03;;;7.25;100.00
21640;BME280;10981;45.462;10.974;2024-03-23T05:20:36;100326.44;;;7.25;100.00
21640;BME280;10981;45.462;10.974;2024-03-23T05:23:03;100321.00;;;7.28;100.00
21640;BME280;10981;45.462;10.974;2024-03-23T05:25:31;100319.00;;;7.31;100.00
21640;BME280;10981;45.462;10.974;2024-03-23T05:27:58;100326.13;;;7.41;100.00
21640;BME280;10981;45.462;10.974;2024-03-23T05:30:25;100319.22;;;7.52;100.00
21640;BME280;10981;45.462;10.974;2024-03-23T05:32:52;100311.06;;;7.68;100.00
21640;BME280;10981;45.462;10.974;2024-03-23T05:35:19;100311.84;;;7.82;100.00
21640;BME280;10981;45.462;10.974;2024-03-23T05:37:47;100310.31;;;7.91;100.00
21640;BME280;10981;45.462;10.974;2024-03-23T05:40:14;100308.78;;;7.99;100.00
21640;BME280;10981;45.462;10.974;2024-03-23T05:42:42;100310.34;;;8.13;100.00
21640;BME280;10981;45.462;10.974;2024-03-23T05:45:12;100304.78;;;8.18;100.00
21640;BME280;10981;45.462;10.974;2024-03-23T05:47:40;100305.50;;;8.20;100.00
21640;BME280;10981;45.462;10.974;2024-03-23T05:50:07;100303.72;;;8.21;100.00
21640;BME280;10981;45.462;10.974;2024-03-23T05:52:36;100307.03;;;8.23;100.00
21640;BME280;10981;45.462;10.974;2024-03-23T05:55:04;100298.47;;;8.09;100.00
21640;BME280;10981;45.462;10.974;2024-03-23T05:57:32;100295.78;;;7.99;100.00
21640;BME280;10981;45.462;10.974;2024-03-23T05:59:59;100296.59;;;8.00;100.00
21640;BME280;10981;45.462;10.974;2024-03-23T06:02:26;100296.38;;;8.03;100.00
21640;BME280;10981;45.462;10.974;2024-03-23T06:04:53;100304.28;;;8.13;100.00
21640;BME280;10981;45.462;10.974;2024-03-23T06:07:20;100299.69;;;8.28;100.00
21640;BME280;10981;45.462;10.974;2024-03-23T06:09:48;100298.31;;;8.46;100.00
21640;BME280;10981;45.462;10.974;2024-03-23T06:12:17;100297.47;;;8.57;100.00
21640;BME280;10981;45.462;10.974;2024-03-23T06:14:45;100289.63;;;8.34;100.00
21640;BME280;10981;45.462;10.974;2024-03-23T06:17:12;100295.88;;;8.32;100.00
21640;BME280;10981;45.462;10.974;2024-03-23T06:19:40;100291.88;;;8.39;100.00
21640;BME280;10981;45.462;10.974;2024-03-23T06:22:07;100304.94;;;8.50;100.00
21640;BME280;10981;45.462;10.974;2024-03-23T06:24:35;100303.47;;;8.69;100.00
21640;BME280;10981;45.462;10.974;2024-03-23T06:27:02;100303.22;;;8.83;100.00
21640;BME280;10981;45.462;10.974;2024-03-23T06:29:30;100304.03;;;8.95;100.00
21640;BME280;10981;45.462;10.974;2024-03-23T06:31:57;100302.00;;;8.99;100.00
21640;BME280;10981;45.462;10.974;2024-03-23T06:34:25;100292.28;;;9.01;100.00
21640;BME280;10981;45.462;10.974;2024-03-23T06:36:52;100286.63;;;9.17;100.00
21640;BME280;10981;45.462;10.974;2024-03-23T06:39:19;100290.25;;;9.37;100.00
21640;BME280;10981;45.462;10.974;2024-03-23T06:41:53;100293.56;;;9.60;100.00
21640;BME280;10981;45.462;10.974;2024-03-23T06:44:21;100276.81;;;9.84;100.00
21640;BME280;10981;45.462;10.974;2024-03-23T06:46:48;100279.94;;;9.99;100.00
21640;BME280;10981;45.462;10.974;2024-03-23T06:49:18;100276.44;;;10.20;100.00
21640;BME280;10981;45.462;10.974;2024-03-23T06:51:48;100284.03;;;10.63;100.00
21640;BME280;10981;45.462;10.974;2024-03-23T06:54:17;100279.28;;;11.47;100.00
21640;BME280;10981;45.462;10.974;2024-03-23T06:56:45;100266.78;;;12.82;100.00
21640;BME280;10981;45.462;10.974;2024-03-23T06:59:12;100257.19;;;14.91;100.00
21640;BME280;10981;45.462;10.974;2024-03-23T07:01:39;100263.06;;;16.40;100.00
21640;BME280;10981;45.462;10.974;2024-03-23T07:04:06;100260.78;;;17.38;100.00
21640;BME280;10981;45.462;10.974;2024-03-23T07:06:34;100251.38;;;17.89;100.00
21640;BME280;10981;45.462;10.974;2024-03-23T07:09:01;100251.00;;;17.62;100.00
21640;BME280;10981;45.462;10.974;2024-03-23T07:11:28;100244.81;;;17.85;100.00
21640;BME280;10981;45.462;10.974;2024-03-23T07:13:55;100243.69;;;18.39;100.00
21640;BME280;10981;45.462;10.974;2024-03-23T07:16:23;100232.41;;;19.10;100.00
21640;BME280;10981;45.462;10.974;2024-03-23T07:18:51;100236.22;;;19.29;100.00
21640;BME280;10981;45.462;10.974;2024-03-23T07:21:18;100224.66;;;19.65;100.00
21640;BME280;10981;45.462;10.974;2024-03-23T07:23:45;100225.25;;;20.51;100.00
21640;BME280;10981;45.462;10.974;2024-03-23T07:26:13;100222.53;;;20.31;100.00
21640;BME280;10981;45.462;10.974;2024-03-23T07:28:43;100223.19;;;19.91;100.00
21640;BME280;10981;45.462;10.974;2024-03-23T07:31:15;100220.44;;;20.74;100.00
21640;BME280;10981;45.462;10.974;2024-03-23T07:33:47;100217.59;;;22.15;100.00
21640;BME280;10981;45.462;10.974;2024-03-23T07:36:15;100210.97;;;22.70;98.50
21640;BME280;10981;45.462;10.974;2024-03-23T07:38:43;100218.56;;;21.76;96.87
21640;BME280;10981;45.462;10.974;2024-03-23T07:41:15;100218.16;;;20.65;100.00
21640;BME280;10981;45.462;10.974;2024-03-23T07:43:44;100211.91;;;19.82;100.00
21640;BME280;10981;45.462;10.974;2024-03-23T07:46:12;100216.47;;;18.88;100.00
21640;BME280;10981;45.462;10.974;2024-03-23T07:48:40;100211.53;;;18.05;100.00
21640;BME280;10981;45.462;10.974;2024-03-23T07:51:32;100210.69;;;17.60;100.00
21640;BME280;10981;45.462;10.974;2024-03-23T07:53:58;100212.25;;;17.99;100.00
21640;BME280;10981;45.462;10.974;2024-03-23T07:56:25;100205.56;;;18.55;100.00
21640;BME280;10981;45.462;10.974;2024-03-23T07:58:52;100198.91;;;19.59;100.00
21640;BME280;10981;45.462;10.974;2024-03-23T08:01:20;100190.25;;;20.34;100.00
21640;BME280;10981;45.462;10.974;2024-03-23T08:03:47;100187.72;;;21.14;100.00
21640;BME280;10981;45.462;10.974;2024-03-23T08:06:17;100182.50;;;22.25;100.00
21640;BME280;10981;45.462;10.974;2024-03-23T08:08:46;100182.59;;;23.33;92.57
21640;BME280;10981;45.462;10.974;2024-03-23T08:11:13;100181.25;;;24.59;88.68
21640;BME280;10981;45.462;10.974;2024-03-23T08:13:42;100190.78;;;25.09;84.09
21640;BME280;10981;45.462;10.974;2024-03-23T08:16:09;100189.16;;;25.08;78.61
21640;BME280;10981;45.462;10.974;2024-03-23T08:18:36;100179.72;;;25.17;80.00
21640;BME280;10981;45.462;10.974;2024-03-23T08:21:05;100182.50;;;25.22;74.43
21640;BME280;10981;45.462;10.974;2024-03-23T08:23:34;100185.66;;;25.55;74.26
21640;BME280;10981;45.462;10.974;2024-03-23T08:26:07;100202.28;;;25.21;71.34
21640;BME280;10981;45.462;10.974;2024-03-23T08:28:36;100198.41;;;24.70;71.34
21640;BME280;10981;45.462;10.974;2024-03-23T08:31:06;100200.50;;;24.07;71.64
21640;BME280;10981;45.462;10.974;2024-03-23T08:33:34;100195.13;;;23.88;72.48
21640;BME280;10981;45.462;10.974;2024-03-23T08:36:06;100201.53;;;23.25;75.18
21640;BME280;10981;45.462;10.974;2024-03-23T08:38:34;100192.72;;;22.28;77.87
21640;BME280;10981;45.462;10.974;2024-03-23T08:41:11;100194.75;;;21.87;81.03
21640;BME280;10981;45.462;10.974;2024-03-23T08:43:41;100195.31;;;21.11;83.15
21640;BME280;10981;45.462;10.974;2024-03-23T08:46:27;100197.47;;;20.47;89.26
21640;BME280;10981;45.462;10.974;2024-03-23T08:48:54;100196.34;;;20.14;89.20
21640;BME280;10981;45.462;10.974;2024-03-23T08:51:21;100185.44;;;19.96;90.53
21640;BME280;10981;45.462;10.974;2024-03-23T08:53:48;100180.94;;;19.96;93.63
21640;BME280;10981;45.462;10.974;2024-03-23T08:56:16;100181.38;;;20.00;92.42
21640;BME280;10981;45.462;10.974;2024-03-23T08:58:44;100181.22;;;19.73;93.26
21640;BME280;10981;45.462;10.974;2024-03-23T09:01:12;100170.69;;;19.51;94.39
21640;BME280;10981;45.462;10.974;2024-03-23T09:03:40;100168.09;;;19.65;92.81
21640;BME280;10981;45.462;10.974;2024-03-23T09:06:12;100167.53;;;19.69;93.25
21640;BME280;10981;45.462;10.974;2024-03-23T09:08:40;100165.53;;;19.78;92.58
21640;BME280;10981;45.462;10.974;2024-03-23T09:11:09;100157.94;;;19.75;92.61
21640;BME280;10981;45.462;10.974;2024-03-23T09:13:38;100164.84;;;19.63;92.88
21640;BME280;10981;45.462;10.974;2024-03-23T09:16:06;100164.41;;;19.59;92.59
21640;BME280;10981;45.462;10.974;2024-03-23T09:18:35;100154.19;;;19.56;92.73
21640;BME280;10981;45.462;10.974;2024-03-23T09:21:12;100154.97;;;19.50;93.03
21640;BME280;10981;45.462;10.974;2024-03-23T09:23:45;100154.69;;;19.38;95.44
21640;BME280;10981;45.462;10.974;2024-03-23T09:26:13;100144.94;;;19.45;96.80
21640;BME280;10981;45.462;10.974;2024-03-23T09:28:40;100144.75;;;19.47;97.12
21640;BME280;10981;45.462;10.974;2024-03-23T09:31:08;100145.41;;;19.55;96.14
21640;BME280;10981;45.462;10.974;2024-03-23T09:33:41;100137.44;;;19.55;95.44
21640;BME280;10981;45.462;10.974;2024-03-23T09:36:11;100134.31;;;18.60;95.11
21640;BME280;10981;45.462;10.974;2024-03-23T09:38:38;100133.53;;;18.88;97.77
21640;BME280;10981;45.462;10.974;2024-03-23T09:41:09;100134.84;;;18.99;100.00
21640;BME280;10981;45.462;10.974;2024-03-23T09:43:37;100134.34;;;19.17;97.83
21640;BME280;10981;45.462;10.974;2024-03-23T09:46:04;100138.84;;;19.16;95.35
21640;BME280;10981;45.462;10.974;2024-03-23T09:48:32;100126.28;;;19.32;98.23
21640;BME280;10981;45.462;10.974;2024-03-23T09:51:00;100137.13;;;19.37;96.54
21640;BME280;10981;45.462;10.974;2024-03-23T09:53:27;100133.50;;;19.44;95.69
21640;BME280;10981;45.462;10.974;2024-03-23T09:55:54;100123.09;;;19.43;97.31
21640;BME280;10981;45.462;10.974;2024-03-23T09:58:24;100125.94;;;19.41;95.06
21640;BME280;10981;45.462;10.974;2024-03-23T10:00:51;100124.97;;;19.49;97.07
21640;BME280;10981;45.462;10.974;2024-03-23T10:03:18;100119.69;;;19.56;94.21
21640;BME280;10981;45.462;10.974;2024-03-23T10:05:45;100117.22;;;19.48;94.84
21640;BME280;10981;45.462;10.974;2024-03-23T10:10:46;100094.84;;;19.22;93.21
21640;BME280;10981;45.462;10.974;2024-03-23T10:13:27;100093.41;;;19.19;93.94
21640;BME280;10981;45.462;10.974;2024-03-23T10:15:57;100081.59;;;19.22;96.56
21640;BME280;10981;45.462;10.974;2024-03-23T10:18:26;100065.19;;;19.11;96.10
21640;BME280;10981;45.462;10.974;2024-03-23T10:21:08;100057.28;;;19.18;96.18
21640;BME280;10981;45.462;10.974;2024-03-23T10:23:40;100052.53;;;19.07;94.35
21640;BME280;10981;45.462;10.974;2024-03-23T10:26:18;100050.69;;;19.07;96.94
21640;BME280;10981;45.462;10.974;2024-03-23T10:31:35;100032.91;;;18.73;95.71
21640;BME280;10981;45.462;10.974;2024-03-23T10:34:03;100036.66;;;18.85;99.22
21640;BME280;10981;45.462;10.974;2024-03-23T10:36:31;100036.22;;;19.10;96.30
21640;BME280;10981;45.462;10.974;2024-03-23T10:39:00;100037.75;;;19.26;97.47
21640;BME280;10981;45.462;10.974;2024-03-23T10:41:32;100037.09;;;19.24;96.04
21640;BME280;10981;45.462;10.974;2024-03-23T10:44:02;100024.19;;;19.07;96.68
21640;BME280;10981;45.462;10.974;2024-03-23T10:46:29;100018.66;;;19.09;96.86
21640;BME280;10981;45.462;10.974;2024-03-23T10:48:57;100018.31;;;19.19;96.24
21640;BME280;10981;45.462;10.974;2024-03-23T10:51:25;100007.34;;;19.28;94.53
21640;BME280;10981;45.462;10.974;2024-03-23T10:53:53;100003.69;;;19.30;95.40
21640;BME280;10981;45.462;10.974;2024-03-23T10:56:23;100010.03;;;19.35;95.28
21640;BME280;10981;45.462;10.974;2024-03-23T10:58:50;100009.66;;;19.45;94.90
21640;BME280;10981;45.462;10.974;2024-03-23T11:01:18;99992.59;;;19.74;96.29
21640;BME280;10981;45.462;10.974;2024-03-23T11:03:46;99993.41;;;19.75;95.08
21640;BME280;10981;45.462;10.974;2024-03-23T11:06:49;99982.25;;;20.00;94.30
21640;BME280;10981;45.462;10.974;2024-03-23T11:15:11;99958.56;;;20.25;91.57
21640;BME280;10981;45.462;10.974;2024-03-23T11:17:39;99954.88;;;20.39;92.01
21640;BME280;10981;45.462;10.974;2024-03-23T11:20:07;99952.00;;;20.48;90.22
21640;BME280;10981;45.462;10.974;2024-03-23T11:22:46;99946.44;;;20.83;89.99
21640;BME280;10981;45.462;10.974;2024-03-23T11:25:21;99941.22;;;21.08;90.21
21640;BME280;10981;45.462;10.974;2024-03-23T11:27:49;99943.09;;;21.01;82.79
21640;BME280;10981;45.462;10.974;2024-03-23T11:30:18;99924.34;;;21.28;83.56
21640;BME280;10981;45.462;10.974;2024-03-23T11:32:47;99920.22;;;21.38;84.80
21640;BME280;10981;45.462;10.974;2024-03-23T11:35:33;99915.94;;;21.69;83.76
21640;BME280;10981;45.462;10.974;2024-03-23T11:38:07;99901.63;;;21.89;83.03
21640;BME280;10981;45.462;10.974;2024-03-23T11:40:39;99909.00;;;21.94;79.35
21640;BME280;10981;45.462;10.974;2024-03-23T11:45:50;99889.53;;;21.93;78.07
21640;BME280;10981;45.462;10.974;2024-03-23T11:48:23;99879.69;;;21.94;75.83
21640;BME280;10981;45.462;10.974;2024-03-23T11:50:53;99881.38;;;22.13;77.69
21640;BME280;10981;45.462;10.974;2024-03-23T11:53:22;99874.41;;;22.12;76.58
21640;BME280;10981;45.462;10.974;2024-03-23T11:55:58;99875.28;;;22.25;75.36
21640;BME280;10981;45.462;10.974;2024-03-23T11:58:26;99866.16;;;21.95;76.45
21640;BME280;10981;45.462;10.974;2024-03-23T12:00:58;99852.50;;;21.92;77.34
21640;BME280;10981;45.462;10.974;2024-03-23T12:03:29;99847.75;;;22.38;77.77
21640;BME280;10981;45.462;10.974;2024-03-23T12:05:59;99833.41;;;22.69;75.38
21640;BME280;10981;45.462;10.974;2024-03-23T12:08:34;99846.00;;;22.80;75.56
21640;BME280;10981;45.462;10.974;2024-03-23T12:11:10;99843.50;;;21.86;75.01
21640;BME280;10981;45.462;10.974;2024-03-23T12:13:39;99837.00;;;21.82;75.76
21640;BME280;10981;45.462;10.974;2024-03-23T12:16:19;99837.84;;;22.19;77.24
21640;BME280;10981;45.462;10.974;2024-03-23T12:18:51;99817.75;;;22.42;75.32
21640;BME280;10981;45.462;10.974;2024-03-23T12:21:18;99808.59;;;22.38;76.20
21640;BME280;10981;45.462;10.974;2024-03-23T12:23:46;99808.13;;;22.23;77.71
21640;BME280;10981;45.462;10.974;2024-03-23T12:26:13;99807.44;;;22.09;78.74
21640;BME280;10981;45.462;10.974;2024-03-23T12:28:41;99799.59;;;22.14;77.19
21640;BME280;10981;45.462;10.974;2024-03-23T12:31:11;99797.59;;;22.46;76.59
21640;BME280;10981;45.462;10.974;2024-03-23T12:33:38;99790.66;;;22.27;79.10
21640;BME280;10981;45.462;10.974;2024-03-23T12:36:08;99792.00;;;22.17;78.00
21640;BME280;10981;45.462;10.974;2024-03-23T12:38:35;99794.88;;;21.97;78.49
21640;BME280;10981;45.462;10.974;2024-03-23T12:41:03;99778.94;;;22.09;78.63
21640;BME280;10981;45.462;10.974;2024-03-23T12:43:32;99776.44;;;21.96;79.68
21640;BME280;10981;45.462;10.974;2024-03-23T12:45:59;99772.28;;;21.81;79.80
21640;BME280;10981;45.462;10.974;2024-03-23T12:48:26;99776.75;;;21.37;80.35
21640;BME280;10981;45.462;10.974;2024-03-23T12:50:56;99760.13;;;21.16;79.97
21640;BME280;10981;45.462;10.974;2024-03-23T12:53:24;99761.53;;;21.19;79.90
21640;BME280;10981;45.462;10.974;2024-03-23T12:55:51;99746.50;;;21.31;80.67
21640;BME280;10981;45.462;10.974;2024-03-23T12:58:19;99748.63;;;21.48;80.18
21640;BME280;10981;45.462;10.974;2024-03-23T13:00:46;99749.22;;;21.25;79.70
21640;BME280;10981;45.462;10.974;2024-03-23T13:03:14;99746.19;;;21.21;81.78
21640;BME280;10981;45.462;10.974;2024-03-23T13:05:42;99737.81;;;21.86;80.10
21640;BME280;10981;45.462;10.974;2024-03-23T13:08:09;99729.69;;;22.37;77.59
21640;BME280;10981;45.462;10.974;2024-03-23T13:10:37;99728.78;;;22.85;75.82
21640;BME280;10981;45.462;10.974;2024-03-23T13:13:04;99733.81;;;22.51;75.45
21640;BME280;10981;45.462;10.974;2024-03-23T13:15:31;99739.53;;;21.99;75.31
21640;BME280;10981;45.462;10.974;2024-03-23T13:17:58;99741.94;;;21.38;75.69
21640;BME280;10981;45.462;10.974;2024-03-23T13:20:26;99731.16;;;21.08;75.94
21640;BME280;10981;45.462;10.974;2024-03-23T13:22:53;99737.91;;;20.72;76.39
21640;BME280;10981;45.462;10.974;2024-03-23T13:25:21;99730.34;;;20.69;77.90
21640;BME280;10981;45.462;10.974;2024-03-23T13:27:48;99732.50;;;20.53;78.25
21640;BME280;10981;45.462;10.974;2024-03-23T13:30:18;99730.28;;;20.44;79.89
21640;BME280;10981;45.462;10.974;2024-03-23T13:32:45;99732.88;;;20.12;79.74
21640;BME280;10981;45.462;10.974;2024-03-23T13:35:12;99736.59;;;19.97;80.90
21640;BME280;10981;45.462;10.974;2024-03-23T13:37:40;99733.16;;;19.83;81.04
21640;BME280;10981;45.462;10.974;2024-03-23T13:40:08;99729.06;;;19.67;82.03
21640;BME280;10981;45.462;10.974;2024-03-23T13:42:36;99727.25;;;19.61;83.00
21640;BME280;10981;45.462;10.974;2024-03-23T13:45:04;99737.06;;;19.54;84.32
21640;BME280;10981;45.462;10.974;2024-03-23T13:47:31;99733.38;;;19.55;84.56
21640;BME280;10981;45.462;10.974;2024-03-23T13:49:58;99723.63;;;19.49;84.60
21640;BME280;10981;45.462;10.974;2024-03-23T13:52:26;99719.72;;;19.51;85.40
21640;BME280;10981;45.462;10.974;2024-03-23T13:54:54;99706.22;;;19.59;85.51